OIAH

Details ICAO OIAH
Name GACHSARAN
Region Iran
Timezone Asia/Tehran (UTC+3.5)
Plans Departing 1
Arriving 1
Stats Elevation 2,414 ft / 736 m (AMSL)
Location 30.337567° 50.827962°
Runways 1
Magnetic Variation 3.499° E
Sunrise 2017-12-12 03:25:13 UTC / 2017-12-12 06:55:13 Local
Sunset 2017-12-12 13:38:21 UTC / 2017-12-12 17:08:21 Local
Advertisement - Login to hide

Runways

ID Width Length Bearing (true) Bearing (mag) Surface Threshold Offset Overrun Length
12 148 ft / 45 m 6,066 ft / 1,849 m 124.71° 121.21° Asphalt 0 ft / 0 m 0 ft / 0 m
30 148 ft / 45 m 6,066 ft / 1,849 m 304.72° 301.22° Asphalt 0 ft / 0 m 0 ft / 0 m

Map

Weather


0- 5 10 15 20 25 30 35+ Temperature / ° C

Clouds and Precipitation
Forecast for 2017-12-12 18:00 UTC. Updated an hour ago

Ground ~20,000 ft ~40,000 ft Winds

METAR

OIAH 121800Z 00000KT CAVOK 08/00 Q1020

TAF

Not found

Frequencies

Tower 129.00 MHz INFO
Tower 122.10 MHz INFO
Warning: Do not use this data for real-world aviation or navigation. No guarantee of current accuracy is given.